sensor_id;sensor_type;location;lat;lon;timestamp;P1;durP1;ratioP1;P2;durP2;ratioP2
44165;SDS011;30476;53.468;9.826;2023-03-20T00:00:37;26.47;;;16.40;;
44165;SDS011;30476;53.468;9.826;2023-03-20T00:03:05;27.17;;;16.10;;
44165;SDS011;30476;53.468;9.826;2023-03-20T00:05:33;28.63;;;16.20;;
44165;SDS011;30476;53.468;9.826;2023-03-20T00:07:59;30.60;;;16.53;;
44165;SDS011;30476;53.468;9.826;2023-03-20T00:10:46;31.83;;;16.97;;
44165;SDS011;30476;53.468;9.826;2023-03-20T00:13:12;27.20;;;16.07;;
44165;SDS011;30476;53.468;9.826;2023-03-20T00:15:43;26.30;;;15.07;;
44165;SDS011;30476;53.468;9.826;2023-03-20T00:18:13;32.20;;;15.30;;
44165;SDS011;30476;53.468;9.826;2023-03-20T00:20:43;31.70;;;17.07;;
44165;SDS011;30476;53.468;9.826;2023-03-20T00:23:10;29.87;;;16.97;;
44165;SDS011;30476;53.468;9.826;2023-03-20T00:25:36;23.50;;;14.77;;
44165;SDS011;30476;53.468;9.826;2023-03-20T00:30:54;27.83;;;15.90;;
44165;SDS011;30476;53.468;9.826;2023-03-20T00:33:20;31.87;;;17.10;;
44165;SDS011;30476;53.468;9.826;2023-03-20T00:35:45;26.20;;;15.17;;
44165;SDS011;30476;53.468;9.826;2023-03-20T00:38:11;26.90;;;16.50;;
44165;SDS011;30476;53.468;9.826;2023-03-20T00:40:37;26.50;;;14.93;;
44165;SDS011;30476;53.468;9.826;2023-03-20T00:43:02;25.83;;;16.33;;
44165;SDS011;30476;53.468;9.826;2023-03-20T00:45:29;26.27;;;15.93;;
44165;SDS011;30476;53.468;9.826;2023-03-20T00:47:58;27.60;;;17.03;;
44165;SDS011;30476;53.468;9.826;2023-03-20T00:50:25;25.67;;;15.67;;
44165;SDS011;30476;53.468;9.826;2023-03-20T00:52:54;28.33;;;16.47;;
44165;SDS011;30476;53.468;9.826;2023-03-20T00:55:21;28.27;;;16.17;;
44165;SDS011;30476;53.468;9.826;2023-03-20T00:57:56;30.53;;;16.30;;
44165;SDS011;30476;53.468;9.826;2023-03-20T01:00:26;29.23;;;17.60;;
44165;SDS011;30476;53.468;9.826;2023-03-20T01:03:01;35.03;;;17.73;;
44165;SDS011;30476;53.468;9.826;2023-03-20T01:05:36;30.23;;;16.80;;
44165;SDS011;30476;53.468;9.826;2023-03-20T01:08:01;29.77;;;17.23;;
44165;SDS011;30476;53.468;9.826;2023-03-20T01:10:30;31.30;;;19.10;;
44165;SDS011;30476;53.468;9.826;2023-03-20T01:12:57;35.13;;;19.00;;
44165;SDS011;30476;53.468;9.826;2023-03-20T01:15:26;31.17;;;19.87;;
44165;SDS011;30476;53.468;9.826;2023-03-20T01:17:56;32.43;;;18.43;;
44165;SDS011;30476;53.468;9.826;2023-03-20T01:20:23;34.57;;;19.27;;
44165;SDS011;30476;53.468;9.826;2023-03-20T01:22:51;31.73;;;18.90;;
44165;SDS011;30476;53.468;9.826;2023-03-20T01:25:18;31.70;;;18.10;;
44165;SDS011;30476;53.468;9.826;2023-03-20T01:27:52;36.00;;;19.10;;
44165;SDS011;30476;53.468;9.826;2023-03-20T01:30:29;28.80;;;17.57;;
44165;SDS011;30476;53.468;9.826;2023-03-20T01:32:56;33.73;;;18.70;;
44165;SDS011;30476;53.468;9.826;2023-03-20T01:35:24;36.20;;;19.07;;
44165;SDS011;30476;53.468;9.826;2023-03-20T01:37:52;32.80;;;18.70;;
44165;SDS011;30476;53.468;9.826;2023-03-20T01:43:15;32.20;;;18.20;;
44165;SDS011;30476;53.468;9.826;2023-03-20T01:45:46;30.23;;;17.87;;
44165;SDS011;30476;53.468;9.826;2023-03-20T01:48:19;32.37;;;18.27;;
44165;SDS011;30476;53.468;9.826;2023-03-20T01:50:46;34.83;;;19.43;;
44165;SDS011;30476;53.468;9.826;2023-03-20T01:53:14;35.80;;;18.93;;
44165;SDS011;30476;53.468;9.826;2023-03-20T01:55:43;30.63;;;16.97;;
44165;SDS011;30476;53.468;9.826;2023-03-20T01:58:18;38.40;;;19.70;;
44165;SDS011;30476;53.468;9.826;2023-03-20T02:00:49;30.53;;;17.37;;
44165;SDS011;30476;53.468;9.826;2023-03-20T02:03:15;36.80;;;19.27;;
44165;SDS011;30476;53.468;9.826;2023-03-20T02:05:42;33.77;;;17.73;;
44165;SDS011;30476;53.468;9.826;2023-03-20T02:08:15;30.97;;;18.40;;
44165;SDS011;30476;53.468;9.826;2023-03-20T02:10:46;32.73;;;17.67;;
44165;SDS011;30476;53.468;9.826;2023-03-20T02:13:14;28.63;;;15.77;;
44165;SDS011;30476;53.468;9.826;2023-03-20T02:18:38;31.77;;;17.90;;
44165;SDS011;30476;53.468;9.826;2023-03-20T02:26:42;26.90;;;15.73;;
44165;SDS011;30476;53.468;9.826;2023-03-20T02:29:57;28.37;;;14.97;;
44165;SDS011;30476;53.468;9.826;2023-03-20T02:33:00;29.03;;;15.50;;
44165;SDS011;30476;53.468;9.826;2023-03-20T02:38:58;22.70;;;13.57;;
44165;SDS011;30476;53.468;9.826;2023-03-20T02:44:45;22.90;;;12.47;;
44165;SDS011;30476;53.468;9.826;2023-03-20T02:47:25;21.50;;;11.93;;
44165;SDS011;30476;53.468;9.826;2023-03-20T02:50:17;20.50;;;12.47;;
44165;SDS011;30476;53.468;9.826;2023-03-20T02:53:28;19.57;;;11.70;;
44165;SDS011;30476;53.468;9.826;2023-03-20T02:59:07;19.97;;;10.80;;
44165;SDS011;30476;53.468;9.826;2023-03-20T03:01:46;15.87;;;10.53;;
44165;SDS011;30476;53.468;9.826;2023-03-20T03:04:23;14.87;;;9.80;;
44165;SDS011;30476;53.468;9.826;2023-03-20T03:06:52;22.30;;;12.13;;
44165;SDS011;30476;53.468;9.826;2023-03-20T03:09:22;19.53;;;11.83;;
44165;SDS011;30476;53.468;9.826;2023-03-20T03:11:54;17.50;;;10.57;;
44165;SDS011;30476;53.468;9.826;2023-03-20T03:14:31;21.60;;;12.77;;
44165;SDS011;30476;53.468;9.826;2023-03-20T03:17:04;17.30;;;10.27;;
44165;SDS011;30476;53.468;9.826;2023-03-20T03:19:32;16.87;;;10.23;;
44165;SDS011;30476;53.468;9.826;2023-03-20T03:22:00;17.87;;;10.30;;
44165;SDS011;30476;53.468;9.826;2023-03-20T03:24:27;17.77;;;11.10;;
44165;SDS011;30476;53.468;9.826;2023-03-20T03:26:59;17.50;;;10.87;;
44165;SDS011;30476;53.468;9.826;2023-03-20T03:29:29;15.70;;;10.00;;
44165;SDS011;30476;53.468;9.826;2023-03-20T03:31:58;12.93;;;9.60;;
44165;SDS011;30476;53.468;9.826;2023-03-20T03:34:26;16.83;;;9.83;;
44165;SDS011;30476;53.468;9.826;2023-03-20T03:37:00;16.40;;;10.70;;
44165;SDS011;30476;53.468;9.826;2023-03-20T03:39:51;16.43;;;8.90;;
44165;SDS011;30476;53.468;9.826;2023-03-20T03:42:28;11.50;;;7.97;;
44165;SDS011;30476;53.468;9.826;2023-03-20T03:45:06;13.20;;;8.90;;
44165;SDS011;30476;53.468;9.826;2023-03-20T03:47:54;16.30;;;9.93;;
44165;SDS011;30476;53.468;9.826;2023-03-20T03:50:27;14.87;;;8.43;;
44165;SDS011;30476;53.468;9.826;2023-03-20T03:52:59;12.53;;;8.53;;
44165;SDS011;30476;53.468;9.826;2023-03-20T03:55:35;14.00;;;8.80;;
44165;SDS011;30476;53.468;9.826;2023-03-20T03:58:07;14.07;;;8.67;;
44165;SDS011;30476;53.468;9.826;2023-03-20T04:00:36;12.83;;;8.83;;
44165;SDS011;30476;53.468;9.826;2023-03-20T04:03:05;14.73;;;7.40;;
44165;SDS011;30476;53.468;9.826;2023-03-20T04:05:33;12.87;;;7.50;;
44165;SDS011;30476;53.468;9.826;2023-03-20T04:08:03;9.40;;;6.93;;
44165;SDS011;30476;53.468;9.826;2023-03-20T04:10:30;11.40;;;7.70;;
44165;SDS011;30476;53.468;9.826;2023-03-20T04:12:56;13.80;;;7.63;;
44165;SDS011;30476;53.468;9.826;2023-03-20T04:15:22;11.53;;;7.80;;
44165;SDS011;30476;53.468;9.826;2023-03-20T04:17:48;15.53;;;7.93;;
44165;SDS011;30476;53.468;9.826;2023-03-20T04:20:14;11.10;;;8.00;;
44165;SDS011;30476;53.468;9.826;2023-03-20T04:22:40;10.80;;;7.00;;
44165;SDS011;30476;53.468;9.826;2023-03-20T04:25:07;10.97;;;6.90;;
44165;SDS011;30476;53.468;9.826;2023-03-20T04:27:38;8.90;;;6.50;;
44165;SDS011;30476;53.468;9.826;2023-03-20T04:30:04;9.70;;;7.10;;
44165;SDS011;30476;53.468;9.826;2023-03-20T04:32:31;10.50;;;7.00;;
44165;SDS011;30476;53.468;9.826;2023-03-20T04:34:56;11.70;;;6.70;;
44165;SDS011;30476;53.468;9.826;2023-03-20T04:37:22;23.43;;;9.30;;
44165;SDS011;30476;53.468;9.826;2023-03-20T04:39:48;9.70;;;7.00;;
44165;SDS011;30476;53.468;9.826;2023-03-20T04:42:14;11.47;;;6.77;;
44165;SDS011;30476;53.468;9.826;2023-03-20T04:44:39;9.63;;;7.23;;
44165;SDS011;30476;53.468;9.826;2023-03-20T04:47:05;11.40;;;7.13;;
44165;SDS011;30476;53.468;9.826;2023-03-20T04:49:31;10.07;;;6.03;;
44165;SDS011;30476;53.468;9.826;2023-03-20T04:51:57;8.17;;;5.57;;
44165;SDS011;30476;53.468;9.826;2023-03-20T04:54:22;7.87;;;5.27;;
44165;SDS011;30476;53.468;9.826;2023-03-20T04:56:48;8.40;;;5.50;;
44165;SDS011;30476;53.468;9.826;2023-03-20T04:59:14;6.13;;;4.90;;
44165;SDS011;30476;53.468;9.826;2023-03-20T05:01:40;7.93;;;5.63;;
44165;SDS011;30476;53.468;9.826;2023-03-20T05:04:05;8.70;;;6.10;;
44165;SDS011;30476;53.468;9.826;2023-03-20T05:06:31;6.30;;;5.50;;
44165;SDS011;30476;53.468;9.826;2023-03-20T05:08:57;5.40;;;4.70;;
44165;SDS011;30476;53.468;9.826;2023-03-20T05:11:24;9.77;;;5.20;;
44165;SDS011;30476;53.468;9.826;2023-03-20T05:13:50;8.40;;;5.30;;
44165;SDS011;30476;53.468;9.826;2023-03-20T05:16:16;7.17;;;5.13;;
44165;SDS011;30476;53.468;9.826;2023-03-20T05:18:42;8.70;;;6.50;;
44165;SDS011;30476;53.468;9.826;2023-03-20T05:21:08;7.10;;;5.23;;
44165;SDS011;30476;53.468;9.826;2023-03-20T05:23:34;8.40;;;5.43;;
44165;SDS011;30476;53.468;9.826;2023-03-20T05:25:59;7.90;;;5.13;;
44165;SDS011;30476;53.468;9.826;2023-03-20T05:28:26;8.60;;;6.00;;
44165;SDS011;30476;53.468;9.826;2023-03-20T05:30:51;9.27;;;5.77;;
44165;SDS011;30476;53.468;9.826;2023-03-20T05:33:17;9.20;;;5.30;;
44165;SDS011;30476;53.468;9.826;2023-03-20T05:35:43;9.00;;;6.23;;
44165;SDS011;30476;53.468;9.826;2023-03-20T05:38:09;9.20;;;5.67;;
44165;SDS011;30476;53.468;9.826;2023-03-20T05:40:34;9.37;;;7.20;;
44165;SDS011;30476;53.468;9.826;2023-03-20T05:43:00;9.83;;;6.87;;
44165;SDS011;30476;53.468;9.826;2023-03-20T05:45:26;8.20;;;6.07;;
44165;SDS011;30476;53.468;9.826;2023-03-20T05:47:52;8.60;;;6.27;;
44165;SDS011;30476;53.468;9.826;2023-03-20T05:50:18;9.73;;;5.47;;
44165;SDS011;30476;53.468;9.826;2023-03-20T05:52:47;7.90;;;5.77;;
44165;SDS011;30476;53.468;9.826;2023-03-20T05:55:13;7.03;;;5.80;;
44165;SDS011;30476;53.468;9.826;2023-03-20T05:57:40;10.63;;;5.63;;
44165;SDS011;30476;53.468;9.826;2023-03-20T06:00:06;8.23;;;5.37;;
44165;SDS011;30476;53.468;9.826;2023-03-20T06:02:35;7.77;;;5.57;;
44165;SDS011;30476;53.468;9.826;2023-03-20T06:05:01;7.07;;;5.03;;
44165;SDS011;30476;53.468;9.826;2023-03-20T06:07:27;8.90;;;4.77;;
44165;SDS011;30476;53.468;9.826;2023-03-20T06:09:53;8.23;;;5.40;;
44165;SDS011;30476;53.468;9.826;2023-03-20T06:12:19;7.80;;;5.17;;
44165;SDS011;30476;53.468;9.826;2023-03-20T06:14:45;8.60;;;5.27;;
44165;SDS011;30476;53.468;9.826;2023-03-20T06:17:11;8.20;;;5.90;;
44165;SDS011;30476;53.468;9.826;2023-03-20T06:19:37;8.60;;;5.80;;
44165;SDS011;30476;53.468;9.826;2023-03-20T06:22:03;6.40;;;4.90;;
44165;SDS011;30476;53.468;9.826;2023-03-20T06:24:29;9.47;;;5.90;;
44165;SDS011;30476;53.468;9.826;2023-03-20T06:26:55;8.00;;;5.77;;
44165;SDS011;30476;53.468;9.826;2023-03-20T06:29:21;10.60;;;5.23;;
44165;SDS011;30476;53.468;9.826;2023-03-20T06:31:46;6.97;;;5.50;;
44165;SDS011;30476;53.468;9.826;2023-03-20T06:34:12;8.70;;;5.90;;
44165;SDS011;30476;53.468;9.826;2023-03-20T06:36:38;8.77;;;5.80;;
44165;SDS011;30476;53.468;9.826;2023-03-20T06:39:04;8.47;;;5.70;;
44165;SDS011;30476;53.468;9.826;2023-03-20T06:41:30;7.53;;;5.50;;
44165;SDS011;30476;53.468;9.826;2023-03-20T06:43:56;9.10;;;5.83;;
44165;SDS011;30476;53.468;9.826;2023-03-20T06:46:22;7.77;;;5.37;;
44165;SDS011;30476;53.468;9.826;2023-03-20T06:48:47;7.43;;;6.00;;
44165;SDS011;30476;53.468;9.826;2023-03-20T06:51:13;7.33;;;4.70;;
44165;SDS011;30476;53.468;9.826;2023-03-20T06:53:39;6.83;;;5.33;;
44165;SDS011;30476;53.468;9.826;2023-03-20T06:56:08;8.93;;;5.50;;
44165;SDS011;30476;53.468;9.826;2023-03-20T06:58:35;5.13;;;4.37;;
44165;SDS011;30476;53.468;9.826;2023-03-20T07:01:01;7.47;;;5.40;;
44165;SDS011;30476;53.468;9.826;2023-03-20T07:03:33;13.57;;;6.33;;
44165;SDS011;30476;53.468;9.826;2023-03-20T07:06:00;8.47;;;5.23;;
44165;SDS011;30476;53.468;9.826;2023-03-20T07:08:26;8.60;;;5.77;;
44165;SDS011;30476;53.468;9.826;2023-03-20T07:10:51;8.07;;;5.70;;
44165;SDS011;30476;53.468;9.826;2023-03-20T07:13:17;11.43;;;5.40;;
44165;SDS011;30476;53.468;9.826;2023-03-20T07:15:43;9.10;;;5.40;;
44165;SDS011;30476;53.468;9.826;2023-03-20T07:18:09;8.00;;;4.83;;
44165;SDS011;30476;53.468;9.826;2023-03-20T07:20:34;5.47;;;4.97;;
44165;SDS011;30476;53.468;9.826;2023-03-20T07:23:01;7.57;;;5.60;;
44165;SDS011;30476;53.468;9.826;2023-03-20T07:25:26;8.40;;;5.50;;
44165;SDS011;30476;53.468;9.826;2023-03-20T07:27:52;7.00;;;5.03;;
44165;SDS011;30476;53.468;9.826;2023-03-20T07:30:18;9.50;;;5.30;;
44165;SDS011;30476;53.468;9.826;2023-03-20T07:32:44;9.90;;;5.63;;
44165;SDS011;30476;53.468;9.826;2023-03-20T07:35:10;8.27;;;4.63;;
44165;SDS011;30476;53.468;9.826;2023-03-20T07:37:36;6.00;;;5.10;;
44165;SDS011;30476;53.468;9.826;2023-03-20T07:40:02;7.73;;;5.27;;
44165;SDS011;30476;53.468;9.826;2023-03-20T07:42:28;6.90;;;4.70;;
44165;SDS011;30476;53.468;9.826;2023-03-20T07:44:54;11.17;;;7.13;;
44165;SDS011;30476;53.468;9.826;2023-03-20T07:47:20;5.03;;;4.53;;
44165;SDS011;30476;53.468;9.826;2023-03-20T07:49:46;5.60;;;4.53;;
44165;SDS011;30476;53.468;9.826;2023-03-20T07:52:12;8.97;;;4.67;;
44165;SDS011;30476;53.468;9.826;2023-03-20T07:54:38;5.83;;;5.20;;
44165;SDS011;30476;53.468;9.826;2023-03-20T07:57:03;6.60;;;5.93;;
44165;SDS011;30476;53.468;9.826;2023-03-20T07:59:30;6.90;;;4.93;;
44165;SDS011;30476;53.468;9.826;2023-03-20T08:01:56;6.90;;;5.00;;
44165;SDS011;30476;53.468;9.826;2023-03-20T08:04:22;9.50;;;5.63;;
44165;SDS011;30476;53.468;9.826;2023-03-20T08:06:48;11.17;;;5.57;;
44165;SDS011;30476;53.468;9.826;2023-03-20T08:09:15;6.70;;;5.10;;
44165;SDS011;30476;53.468;9.826;2023-03-20T08:11:41;5.73;;;5.13;;
44165;SDS011;30476;53.468;9.826;2023-03-20T08:14:06;8.30;;;6.07;;
44165;SDS011;30476;53.468;9.826;2023-03-20T08:16:32;9.07;;;5.07;;
44165;SDS011;30476;53.468;9.826;2023-03-20T08:18:58;9.00;;;5.80;;
44165;SDS011;30476;53.468;9.826;2023-03-20T08:21:29;7.60;;;5.77;;
44165;SDS011;30476;53.468;9.826;2023-03-20T08:23:56;10.07;;;6.27;;
44165;SDS011;30476;53.468;9.826;2023-03-20T08:26:22;8.60;;;6.53;;
44165;SDS011;30476;53.468;9.826;2023-03-20T08:28:48;9.63;;;6.30;;
44165;SDS011;30476;53.468;9.826;2023-03-20T08:31:14;7.33;;;6.17;;
44165;SDS011;30476;53.468;9.826;2023-03-20T08:33:42;8.87;;;5.90;;
44165;SDS011;30476;53.468;9.826;2023-03-20T08:36:09;7.00;;;5.50;;
44165;SDS011;30476;53.468;9.826;2023-03-20T08:38:36;9.10;;;6.43;;
44165;SDS011;30476;53.468;9.826;2023-03-20T08:41:02;9.70;;;6.40;;
44165;SDS011;30476;53.468;9.826;2023-03-20T08:43:28;7.77;;;5.73;;
44165;SDS011;30476;53.468;9.826;2023-03-20T08:45:54;9.27;;;7.00;;
44165;SDS011;30476;53.468;9.826;2023-03-20T08:48:19;8.73;;;6.10;;
44165;SDS011;30476;53.468;9.826;2023-03-20T08:50:45;9.33;;;5.30;;
44165;SDS011;30476;53.468;9.826;2023-03-20T08:53:11;9.10;;;6.13;;
44165;SDS011;30476;53.468;9.826;2023-03-20T08:55:37;6.77;;;5.37;;
44165;SDS011;30476;53.468;9.826;2023-03-20T08:58:03;7.17;;;5.93;;
44165;SDS011;30476;53.468;9.826;2023-03-20T09:00:29;8.03;;;6.00;;
44165;SDS011;30476;53.468;9.826;2023-03-20T09:02:54;7.87;;;6.63;;
44165;SDS011;30476;53.468;9.826;2023-03-20T09:05:20;8.00;;;6.10;;
44165;SDS011;30476;53.468;9.826;2023-03-20T09:07:46;8.90;;;6.13;;
44165;SDS011;30476;53.468;9.826;2023-03-20T09:10:12;8.03;;;5.70;;
44165;SDS011;30476;53.468;9.826;2023-03-20T09:12:38;9.80;;;6.70;;
44165;SDS011;30476;53.468;9.826;2023-03-20T09:15:04;8.33;;;6.40;;
44165;SDS011;30476;53.468;9.826;2023-03-20T09:17:31;7.90;;;6.27;;
44165;SDS011;30476;53.468;9.826;2023-03-20T09:19:57;7.07;;;6.03;;
44165;SDS011;30476;53.468;9.826;2023-03-20T09:22:23;9.53;;;6.73;;
44165;SDS011;30476;53.468;9.826;2023-03-20T09:24:48;8.70;;;7.03;;
44165;SDS011;30476;53.468;9.826;2023-03-20T09:27:14;10.80;;;6.23;;
44165;SDS011;30476;53.468;9.826;2023-03-20T09:29:41;7.40;;;6.10;;
44165;SDS011;30476;53.468;9.826;2023-03-20T09:32:13;9.60;;;7.57;;
44165;SDS011;30476;53.468;9.826;2023-03-20T09:34:40;8.03;;;5.80;;
44165;SDS011;30476;53.468;9.826;2023-03-20T09:37:06;8.90;;;5.87;;
44165;SDS011;30476;53.468;9.826;2023-03-20T09:39:32;10.20;;;6.83;;
44165;SDS011;30476;53.468;9.826;2023-03-20T09:42:00;7.13;;;6.00;;
44165;SDS011;30476;53.468;9.826;2023-03-20T09:47:25;8.00;;;6.23;;
44165;SDS011;30476;53.468;9.826;2023-03-20T09:50:15;12.00;;;7.03;;
44165;SDS011;30476;53.468;9.826;2023-03-20T09:52:57;8.90;;;7.50;;
44165;SDS011;30476;53.468;9.826;2023-03-20T09:55:33;14.33;;;6.93;;
44165;SDS011;30476;53.468;9.826;2023-03-20T09:58:05;8.67;;;6.27;;
44165;SDS011;30476;53.468;9.826;2023-03-20T10:00:39;9.37;;;5.60;;
44165;SDS011;30476;53.468;9.826;2023-03-20T10:03:24;7.50;;;5.80;;
44165;SDS011;30476;53.468;9.826;2023-03-20T10:06:11;10.03;;;6.20;;
44165;SDS011;30476;53.468;9.826;2023-03-20T10:08:38;8.80;;;7.23;;
44165;SDS011;30476;53.468;9.826;2023-03-20T10:16:12;7.20;;;6.17;;
44165;SDS011;30476;53.468;9.826;2023-03-20T10:19:06;6.50;;;5.87;;
44165;SDS011;30476;53.468;9.826;2023-03-20T10:21:44;10.20;;;6.83;;
44165;SDS011;30476;53.468;9.826;2023-03-20T10:27:20;6.90;;;5.80;;
44165;SDS011;30476;53.468;9.826;2023-03-20T10:30:24;11.30;;;6.57;;
44165;SDS011;30476;53.468;9.826;2023-03-20T10:32:42;12.23;;;5.73;;
44165;SDS011;30476;53.468;9.826;2023-03-20T10:35:25;10.27;;;6.40;;
44165;SDS011;30476;53.468;9.826;2023-03-20T10:41:01;6.87;;;5.50;;
44165;SDS011;30476;53.468;9.826;2023-03-20T10:43:34;7.33;;;6.40;;
44165;SDS011;30476;53.468;9.826;2023-03-20T10:46:07;5.33;;;4.83;;
44165;SDS011;30476;53.468;9.826;2023-03-20T10:48:40;7.67;;;5.93;;
44165;SDS011;30476;53.468;9.826;2023-03-20T10:51:15;6.43;;;5.20;;
44165;SDS011;30476;53.468;9.826;2023-03-20T10:53:52;11.30;;;5.50;;
44165;SDS011;30476;53.468;9.826;2023-03-20T10:56:35;6.03;;;4.83;;
44165;SDS011;30476;53.468;9.826;2023-03-20T10:59:09;7.27;;;4.87;;
44165;SDS011;30476;53.468;9.826;2023-03-20T11:01:43;6.03;;;4.90;;
44165;SDS011;30476;53.468;9.826;2023-03-20T11:04:09;8.37;;;5.47;;
44165;SDS011;30476;53.468;9.826;2023-03-20T11:06:37;7.27;;;6.17;;
44165;SDS011;30476;53.468;9.826;2023-03-20T11:09:17;10.30;;;4.30;;
44165;SDS011;30476;53.468;9.826;2023-03-20T11:11:45;6.50;;;5.60;;
44165;SDS011;30476;53.468;9.826;2023-03-20T11:14:20;11.47;;;5.87;;
44165;SDS011;30476;53.468;9.826;2023-03-20T11:16:48;16.63;;;6.27;;
44165;SDS011;30476;53.468;9.826;2023-03-20T11:19:19;8.80;;;5.70;;
44165;SDS011;30476;53.468;9.826;2023-03-20T11:21:47;6.03;;;5.27;;
44165;SDS011;30476;53.468;9.826;2023-03-20T11:26:51;7.70;;;5.27;;
44165;SDS011;30476;53.468;9.826;2023-03-20T11:29:23;8.37;;;4.73;;
44165;SDS011;30476;53.468;9.826;2023-03-20T11:31:53;7.53;;;5.70;;
44165;SDS011;30476;53.468;9.826;2023-03-20T11:34:43;9.20;;;5.23;;
44165;SDS011;30476;53.468;9.826;2023-03-20T11:37:23;5.33;;;4.83;;
44165;SDS011;30476;53.468;9.826;2023-03-20T11:39:55;7.90;;;5.00;;
44165;SDS011;30476;53.468;9.826;2023-03-20T11:42:36;8.00;;;5.20;;
44165;SDS011;30476;53.468;9.826;2023-03-20T11:45:04;8.00;;;5.30;;
44165;SDS011;30476;53.468;9.826;2023-03-20T11:47:32;6.77;;;5.43;;
44165;SDS011;30476;53.468;9.826;2023-03-20T11:50:00;6.93;;;5.07;;
44165;SDS011;30476;53.468;9.826;2023-03-20T11:52:35;6.50;;;5.90;;
44165;SDS011;30476;53.468;9.826;2023-03-20T11:55:04;6.00;;;4.90;;
44165;SDS011;30476;53.468;9.826;2023-03-20T11:57:43;6.77;;;5.20;;
44165;SDS011;30476;53.468;9.826;2023-03-20T12:02:35;7.47;;;5.30;;
44165;SDS011;30476;53.468;9.826;2023-03-20T12:08:15;6.77;;;5.70;;
44165;SDS011;30476;53.468;9.826;2023-03-20T12:10:51;7.50;;;6.20;;
44165;SDS011;30476;53.468;9.826;2023-03-20T12:13:23;5.40;;;4.90;;
44165;SDS011;30476;53.468;9.826;2023-03-20T12:16:00;9.27;;;5.20;;
44165;SDS011;30476;53.468;9.826;2023-03-20T12:18:39;6.73;;;5.20;;
44165;SDS011;30476;53.468;9.826;2023-03-20T12:21:17;6.30;;;5.70;;
44165;SDS011;30476;53.468;9.826;2023-03-20T12:23:52;5.27;;;4.77;;
44165;SDS011;30476;53.468;9.826;2023-03-20T12:29:37;6.53;;;4.77;;
44165;SDS011;30476;53.468;9.826;2023-03-20T12:32:16;8.43;;;4.77;;
44165;SDS011;30476;53.468;9.826;2023-03-20T12:35:02;5.73;;;5.17;;
44165;SDS011;30476;53.468;9.826;2023-03-20T12:37:35;6.80;;;5.00;;
44165;SDS011;30476;53.468;9.826;2023-03-20T12:40:01;6.93;;;4.70;;
44165;SDS011;30476;53.468;9.826;2023-03-20T12:42:32;5.60;;;5.03;;
44165;SDS011;30476;53.468;9.826;2023-03-20T12:45:16;6.73;;;5.00;;
44165;SDS011;30476;53.468;9.826;2023-03-20T12:47:48;5.93;;;5.10;;
44165;SDS011;30476;53.468;9.826;2023-03-20T12:50:33;6.73;;;4.90;;
44165;SDS011;30476;53.468;9.826;2023-03-20T12:53:11;6.53;;;5.33;;
44165;SDS011;30476;53.468;9.826;2023-03-20T13:01:30;7.90;;;5.20;;
44165;SDS011;30476;53.468;9.826;2023-03-20T13:07:17;8.10;;;4.60;;
44165;SDS011;30476;53.468;9.826;2023-03-20T13:09:46;4.97;;;4.43;;
44165;SDS011;30476;53.468;9.826;2023-03-20T13:12:22;10.03;;;4.43;;
44165;SDS011;30476;53.468;9.826;2023-03-20T13:15:01;7.83;;;4.97;;
44165;SDS011;30476;53.468;9.826;2023-03-20T13:17:50;5.30;;;4.70;;
44165;SDS011;30476;53.468;9.826;2023-03-20T13:20:47;5.70;;;5.20;;
44165;SDS011;30476;53.468;9.826;2023-03-20T13:34:30;5.00;;;4.30;;
44165;SDS011;30476;53.468;9.826;2023-03-20T13:37:22;4.40;;;4.10;;
44165;SDS011;30476;53.468;9.826;2023-03-20T13:40:11;5.23;;;4.73;;
44165;SDS011;30476;53.468;9.826;2023-03-20T13:42:49;7.33;;;4.57;;
44165;SDS011;30476;53.468;9.826;2023-03-20T13:47:57;6.60;;;5.13;;
44165;SDS011;30476;53.468;9.826;2023-03-20T13:50:32;5.63;;;4.20;;
44165;SDS011;30476;53.468;9.826;2023-03-20T13:53:15;5.57;;;4.23;;
44165;SDS011;30476;53.468;9.826;2023-03-20T13:55:51;4.30;;;4.00;;
44165;SDS011;30476;53.468;9.826;2023-03-20T13:58:34;6.60;;;4.73;;
44165;SDS011;30476;53.468;9.826;2023-03-20T14:04:12;6.87;;;3.70;;
44165;SDS011;30476;53.468;9.826;2023-03-20T14:06:49;4.90;;;3.60;;
44165;SDS011;30476;53.468;9.826;2023-03-20T14:09:23;4.23;;;3.63;;
44165;SDS011;30476;53.468;9.826;2023-03-20T14:12:00;4.30;;;3.73;;
44165;SDS011;30476;53.468;9.826;2023-03-20T14:14:41;4.50;;;4.07;;
44165;SDS011;30476;53.468;9.826;2023-03-20T14:17:13;4.70;;;3.73;;
44165;SDS011;30476;53.468;9.826;2023-03-20T14:19:48;3.93;;;3.60;;
44165;SDS011;30476;53.468;9.826;2023-03-20T14:22:19;5.80;;;4.00;;
44165;SDS011;30476;53.468;9.826;2023-03-20T14:24:55;5.90;;;4.17;;
44165;SDS011;30476;53.468;9.826;2023-03-20T14:27:28;5.00;;;3.80;;
44165;SDS011;30476;53.468;9.826;2023-03-20T14:30:23;5.03;;;3.83;;
44165;SDS011;30476;53.468;9.826;2023-03-20T14:33:06;5.30;;;3.80;;
44165;SDS011;30476;53.468;9.826;2023-03-20T14:35:36;4.17;;;3.63;;
44165;SDS011;30476;53.468;9.826;2023-03-20T14:38:24;6.90;;;4.50;;
44165;SDS011;30476;53.468;9.826;2023-03-20T14:40:58;4.83;;;4.27;;
44165;SDS011;30476;53.468;9.826;2023-03-20T14:46:37;6.40;;;4.10;;
44165;SDS011;30476;53.468;9.826;2023-03-20T14:51:59;5.83;;;4.03;;
44165;SDS011;30476;53.468;9.826;2023-03-20T14:54:52;4.80;;;4.33;;
44165;SDS011;30476;53.468;9.826;2023-03-20T14:57:25;4.47;;;4.10;;
44165;SDS011;30476;53.468;9.826;2023-03-20T14:59:58;6.60;;;4.47;;
44165;SDS011;30476;53.468;9.826;2023-03-20T15:02:26;5.53;;;4.90;;
44165;SDS011;30476;53.468;9.826;2023-03-20T15:04:53;6.70;;;6.10;;
44165;SDS011;30476;53.468;9.826;2023-03-20T15:07:22;8.13;;;5.17;;
44165;SDS011;30476;53.468;9.826;2023-03-20T15:09:52;8.00;;;4.27;;
44165;SDS011;30476;53.468;9.826;2023-03-20T15:12:24;6.40;;;4.83;;
44165;SDS011;30476;53.468;9.826;2023-03-20T15:14:54;5.73;;;4.90;;
44165;SDS011;30476;53.468;9.826;2023-03-20T15:17:26;6.93;;;5.57;;
44165;SDS011;30476;53.468;9.826;2023-03-20T15:20:11;5.63;;;5.03;;
44165;SDS011;30476;53.468;9.826;2023-03-20T15:22:57;9.03;;;5.60;;
44165;SDS011;30476;53.468;9.826;2023-03-20T15:25:28;11.33;;;5.13;;
44165;SDS011;30476;53.468;9.826;2023-03-20T15:28:10;6.93;;;5.30;;
44165;SDS011;30476;53.468;9.826;2023-03-20T15:30:39;6.00;;;5.40;;
44165;SDS011;30476;53.468;9.826;2023-03-20T15:33:05;9.57;;;5.67;;
44165;SDS011;30476;53.468;9.826;2023-03-20T15:35:36;6.03;;;5.20;;
44165;SDS011;30476;53.468;9.826;2023-03-20T15:38:03;8.50;;;5.83;;
44165;SDS011;30476;53.468;9.826;2023-03-20T15:40:32;9.40;;;5.80;;
44165;SDS011;30476;53.468;9.826;2023-03-20T15:43:19;6.97;;;6.30;;
44165;SDS011;30476;53.468;9.826;2023-03-20T15:45:47;7.07;;;6.30;;
44165;SDS011;30476;53.468;9.826;2023-03-20T15:48:19;8.50;;;5.73;;
44165;SDS011;30476;53.468;9.826;2023-03-20T15:50:48;6.67;;;6.17;;
44165;SDS011;30476;53.468;9.826;2023-03-20T15:53:22;6.43;;;5.70;;
44165;SDS011;30476;53.468;9.826;2023-03-20T15:56:10;7.90;;;5.87;;
44165;SDS011;30476;53.468;9.826;2023-03-20T15:58:42;9.03;;;6.70;;
44165;SDS011;30476;53.468;9.826;2023-03-20T16:01:08;8.63;;;5.40;;
44165;SDS011;30476;53.468;9.826;2023-03-20T16:03:42;6.80;;;6.03;;
44165;SDS011;30476;53.468;9.826;2023-03-20T16:06:08;11.00;;;7.77;;
44165;SDS011;30476;53.468;9.826;2023-03-20T16:08:36;7.57;;;6.77;;
44165;SDS011;30476;53.468;9.826;2023-03-20T16:13:37;8.70;;;6.40;;
44165;SDS011;30476;53.468;9.826;2023-03-20T16:16:05;6.93;;;5.97;;
44165;SDS011;30476;53.468;9.826;2023-03-20T16:18:35;9.77;;;8.77;;
44165;SDS011;30476;53.468;9.826;2023-03-20T16:21:06;6.93;;;6.33;;
44165;SDS011;30476;53.468;9.826;2023-03-20T16:23:41;6.97;;;6.37;;
44165;SDS011;30476;53.468;9.826;2023-03-20T16:26:12;6.63;;;5.93;;